
<gpx xmlns="http://www.topografix.com/GPX/1/1" xmlns:gpxx="http://www.garmin.com/xmlschemas/GpxExtensions/v3" xmlns:wptx1="http://www.garmin.com/xmlschemas/WaypointExtension/v1" xmlns:xsi="http://www.w3.org/2001/XMLSchema-instance" version="1.1" creator="Adze - https://getadze.com/" xsi:schemaLocation="http://www.topografix.com/GPX/1/1 http://www.topografix.com/GPX/1/1/gpx.xsd http://www.garmin.com/xmlschemas/GpxExtensions/v3 http://www8.garmin.com/xmlschemas/GpxExtensionsv3.xsd http://www.garmin.com/xmlschemas/WaypointExtension/v1 http://www8.garmin.com/xmlschemas/WaypointExtensionv1.xsd">
    <metadata>
        <name>Untitled Document</name>
        <link href="http://www.garmin.com"></link>
        <time>2018-03-06T04:11:27.560Z</time>
    </metadata>
    <wpt lon="100.847570" lat="13.871383">
        <ele>-5.000000</ele>
        <name>BEC Tero Stadium</name>
        <cmt>27-AUG-06 13:27:07</cmt>
        <desc>27-AUG-06 13:27:07</desc>
        <sym>Bike Trail</sym>
        <type>user</type>
        <extensions>
            <gpxx:WaypointExtension>
                <gpxx:DisplayMode>SymbolAndName</gpxx:DisplayMode>
            </gpxx:WaypointExtension>
            <wptx1:WaypointExtension>
                <wptx1:DisplayMode>SymbolAndName</wptx1:DisplayMode>
            </wptx1:WaypointExtension>
        </extensions>
    </wpt>
    <trk>
        <name>August 2006 - Sunday</name>
        <extensions>
            <gpxx:TrackExtension>
                <gpxx:DisplayColor>Black</gpxx:DisplayColor>
            </gpxx:TrackExtension>
        </extensions>
        <trkseg>
            <trkpt lon="100.847503" lat="13.871334">
                <ele>-5.630493</ele>
                <time>2006-08-27T06:14:31Z</time>
            </trkpt>
            <trkpt lon="100.847582" lat="13.871381">
                <ele>-3.227295</ele>
                <time>2006-08-27T06:26:38Z</time>
            </trkpt>
            <trkpt lon="100.847570" lat="13.871382">
                <ele>-5.630493</ele>
                <time>2006-08-27T06:27:08Z</time>
            </trkpt>
            <trkpt lon="100.847566" lat="13.871362">
                <ele>-4.188599</ele>
                <time>2006-08-27T06:29:20Z</time>
            </trkpt>
            <trkpt lon="100.847583" lat="13.871347">
                <ele>-5.149902</ele>
                <time>2006-08-27T06:38:38Z</time>
            </trkpt>
            <trkpt lon="100.847578" lat="13.871333">
                <ele>-5.149902</ele>
                <time>2006-08-27T06:38:47Z</time>
            </trkpt>
            <trkpt lon="100.847764" lat="13.871081">
                <ele>-3.707886</ele>
                <time>2006-08-27T06:39:03Z</time>
            </trkpt>
            <trkpt lon="100.847805" lat="13.870579">
                <ele>-5.630493</ele>
                <time>2006-08-27T06:39:21Z</time>
            </trkpt>
            <trkpt lon="100.847844" lat="13.870024">
                <ele>-5.630493</ele>
                <time>2006-08-27T06:39:36Z</time>
            </trkpt>
            <trkpt lon="100.847919" lat="13.869059">
                <ele>-8.033936</ele>
                <time>2006-08-27T06:39:59Z</time>
            </trkpt>
            <trkpt lon="100.847953" lat="13.868292">
                <ele>-8.514648</ele>
                <time>2006-08-27T06:40:18Z</time>
            </trkpt>
            <trkpt lon="100.847989" lat="13.867474">
                <ele>-8.033936</ele>
                <time>2006-08-27T06:40:38Z</time>
            </trkpt>
            <trkpt lon="100.847600" lat="13.867288">
                <ele>-7.553101</ele>
                <time>2006-08-27T06:40:48Z</time>
            </trkpt>
            <trkpt lon="100.846577" lat="13.866752">
                <ele>-6.591919</ele>
                <time>2006-08-27T06:41:12Z</time>
            </trkpt>
            <trkpt lon="100.846138" lat="13.866502">
                <ele>-7.072510</ele>
                <time>2006-08-27T06:41:22Z</time>
            </trkpt>
            <trkpt lon="100.845094" lat="13.866113">
                <ele>-7.072510</ele>
                <time>2006-08-27T06:41:43Z</time>
            </trkpt>
            <trkpt lon="100.844435" lat="13.865594">
                <ele>-6.111206</ele>
                <time>2006-08-27T06:41:59Z</time>
            </trkpt>
            <trkpt lon="100.843750" lat="13.864830">
                <ele>-5.630493</ele>
                <time>2006-08-27T06:42:20Z</time>
            </trkpt>
            <trkpt lon="100.843650" lat="13.864532">
                <ele>-5.630493</ele>
                <time>2006-08-27T06:42:31Z</time>
            </trkpt>
            <trkpt lon="100.843494" lat="13.864497">
                <ele>-6.591919</ele>
                <time>2006-08-27T06:42:41Z</time>
            </trkpt>
            <trkpt lon="100.843501" lat="13.864524">
                <ele>-6.111206</ele>
                <time>2006-08-27T06:42:51Z</time>
            </trkpt>
            <trkpt lon="100.843572" lat="13.864523">
                <ele>-5.630493</ele>
                <time>2006-08-27T06:42:57Z</time>
            </trkpt>
            <trkpt lon="100.843568" lat="13.864611">
                <ele>-5.149902</ele>
                <time>2006-08-27T06:43:06Z</time>
            </trkpt>
            <trkpt lon="100.843410" lat="13.864771">
                <ele>-4.188599</ele>
                <time>2006-08-27T06:43:22Z</time>
            </trkpt>
            <trkpt lon="100.843424" lat="13.864985">
                <ele>-5.149902</ele>
                <time>2006-08-27T06:43:35Z</time>
            </trkpt>
            <trkpt lon="100.843740" lat="13.865231">
                <ele>-4.188599</ele>
                <time>2006-08-27T06:43:46Z</time>
            </trkpt>
            <trkpt lon="100.843771" lat="13.865262">
                <ele>-4.188599</ele>
                <time>2006-08-27T06:43:47Z</time>
            </trkpt>
            <trkpt lon="100.843812" lat="13.865438">
                <ele>-5.149902</ele>
                <time>2006-08-27T06:43:51Z</time>
            </trkpt>
            <trkpt lon="100.843807" lat="13.865580">
                <ele>-5.630493</ele>
                <time>2006-08-27T06:43:54Z</time>
            </trkpt>
            <trkpt lon="100.843673" lat="13.866447">
                <ele>-5.630493</ele>
                <time>2006-08-27T06:44:13Z</time>
            </trkpt>
            <trkpt lon="100.843601" lat="13.866814">
                <ele>-4.669312</ele>
                <time>2006-08-27T06:44:21Z</time>
            </trkpt>
            <trkpt lon="100.843574" lat="13.866902">
                <ele>-4.669312</ele>
                <time>2006-08-27T06:44:23Z</time>
            </trkpt>
            <trkpt lon="100.843485" lat="13.867701">
                <ele>-4.669312</ele>
                <time>2006-08-27T06:44:41Z</time>
            </trkpt>
            <trkpt lon="100.843350" lat="13.868618">
                <ele>-4.188599</ele>
                <time>2006-08-27T06:45:00Z</time>
            </trkpt>
            <trkpt lon="100.843342" lat="13.868714">
                <ele>-4.669312</ele>
                <time>2006-08-27T06:45:02Z</time>
            </trkpt>
            <trkpt lon="100.843342" lat="13.868860">
                <ele>-5.149902</ele>
                <time>2006-08-27T06:45:05Z</time>
            </trkpt>
            <trkpt lon="100.843314" lat="13.869053">
                <ele>-5.630493</ele>
                <time>2006-08-27T06:45:09Z</time>
            </trkpt>
            <trkpt lon="100.843321" lat="13.869149">
                <ele>-5.630493</ele>
                <time>2006-08-27T06:45:11Z</time>
            </trkpt>
            <trkpt lon="100.843282" lat="13.869882">
                <ele>-6.591919</ele>
                <time>2006-08-27T06:45:27Z</time>
            </trkpt>
            <trkpt lon="100.843218" lat="13.870680">
                <ele>-8.033936</ele>
                <time>2006-08-27T06:45:46Z</time>
            </trkpt>
            <trkpt lon="100.843118" lat="13.871500">
                <ele>-7.553101</ele>
                <time>2006-08-27T06:46:02Z</time>
            </trkpt>
            <trkpt lon="100.843032" lat="13.872135">
                <ele>-7.553101</ele>
                <time>2006-08-27T06:46:15Z</time>
            </trkpt>
            <trkpt lon="100.842914" lat="13.872420">
                <ele>-8.033936</ele>
                <time>2006-08-27T06:46:22Z</time>
            </trkpt>
            <trkpt lon="100.842789" lat="13.873432">
                <ele>-9.475830</ele>
                <time>2006-08-27T06:46:42Z</time>
            </trkpt>
            <trkpt lon="100.842744" lat="13.874274">
                <ele>-9.956543</ele>
                <time>2006-08-27T06:47:00Z</time>
            </trkpt>
            <trkpt lon="100.842735" lat="13.874513">
                <ele>-10.917847</ele>
                <time>2006-08-27T06:47:10Z</time>
            </trkpt>
            <trkpt lon="100.842705" lat="13.875108">
                <ele>-11.398438</ele>
                <time>2006-08-27T06:47:25Z</time>
            </trkpt>
            <trkpt lon="100.842666" lat="13.875981">
                <ele>-11.879150</ele>
                <time>2006-08-27T06:47:44Z</time>
            </trkpt>
            <trkpt lon="100.842613" lat="13.876899">
                <ele>-12.359863</ele>
                <time>2006-08-27T06:48:04Z</time>
            </trkpt>
            <trkpt lon="100.842550" lat="13.877671">
                <ele>-12.359863</ele>
                <time>2006-08-27T06:48:22Z</time>
            </trkpt>
            <trkpt lon="100.842465" lat="13.878368">
                <ele>-11.398438</ele>
                <time>2006-08-27T06:48:38Z</time>
            </trkpt>
            <trkpt lon="100.842357" lat="13.879002">
                <ele>-11.398438</ele>
                <time>2006-08-27T06:48:56Z</time>
            </trkpt>
            <trkpt lon="100.842250" lat="13.879552">
                <ele>-16.205200</ele>
                <time>2006-08-27T06:49:12Z</time>
            </trkpt>
            <trkpt lon="100.842511" lat="13.879671">
                <ele>-14.763062</ele>
                <time>2006-08-27T06:49:21Z</time>
            </trkpt>
            <trkpt lon="100.842855" lat="13.879676">
                <ele>-12.359863</ele>
                <time>2006-08-27T06:49:32Z</time>
            </trkpt>
            <trkpt lon="100.842904" lat="13.879764">
                <ele>-12.359863</ele>
                <time>2006-08-27T06:49:37Z</time>
            </trkpt>
            <trkpt lon="100.842890" lat="13.880072">
                <ele>-10.917847</ele>
                <time>2006-08-27T06:49:46Z</time>
            </trkpt>
            <trkpt lon="100.843008" lat="13.880171">
                <ele>-10.917847</ele>
                <time>2006-08-27T06:49:51Z</time>
            </trkpt>
            <trkpt lon="100.843180" lat="13.880181">
                <ele>-9.956543</ele>
                <time>2006-08-27T06:49:56Z</time>
            </trkpt>
            <trkpt lon="100.843184" lat="13.881180">
                <ele>-7.553101</ele>
                <time>2006-08-27T06:50:21Z</time>
            </trkpt>
            <trkpt lon="100.843156" lat="13.881803">
                <ele>-6.591919</ele>
                <time>2006-08-27T06:50:34Z</time>
            </trkpt>
            <trkpt lon="100.843110" lat="13.882721">
                <ele>-10.437256</ele>
                <time>2006-08-27T06:50:53Z</time>
            </trkpt>
            <trkpt lon="100.843100" lat="13.883082">
                <ele>-10.437256</ele>
                <time>2006-08-27T06:51:01Z</time>
            </trkpt>
            <trkpt lon="100.843070" lat="13.884024">
                <ele>-14.282471</ele>
                <time>2006-08-27T06:51:20Z</time>
            </trkpt>
            <trkpt lon="100.843063" lat="13.884531">
                <ele>-14.282471</ele>
                <time>2006-08-27T06:51:30Z</time>
            </trkpt>
            <trkpt lon="100.843028" lat="13.885303">
                <ele>-13.801758</ele>
                <time>2006-08-27T06:51:47Z</time>
            </trkpt>
            <trkpt lon="100.843017" lat="13.885576">
                <ele>-14.282471</ele>
                <time>2006-08-27T06:51:53Z</time>
            </trkpt>
            <trkpt lon="100.842999" lat="13.885933">
                <ele>-14.763062</ele>
                <time>2006-08-27T06:52:01Z</time>
            </trkpt>
            <trkpt lon="100.843181" lat="13.886060">
                <ele>-12.840454</ele>
                <time>2006-08-27T06:52:09Z</time>
            </trkpt>
            <trkpt lon="100.843181" lat="13.886093">
                <ele>-12.840454</ele>
                <time>2006-08-27T06:52:10Z</time>
            </trkpt>
            <trkpt lon="100.843159" lat="13.886227">
                <ele>-12.359863</ele>
                <time>2006-08-27T06:52:14Z</time>
            </trkpt>
            <trkpt lon="100.842629" lat="13.886372">
                <ele>-11.398438</ele>
                <time>2006-08-27T06:52:27Z</time>
            </trkpt>
            <trkpt lon="100.842091" lat="13.886451">
                <ele>-10.437256</ele>
                <time>2006-08-27T06:52:43Z</time>
            </trkpt>
            <trkpt lon="100.842053" lat="13.886455">
                <ele>-10.917847</ele>
                <time>2006-08-27T06:52:53Z</time>
            </trkpt>
            <trkpt lon="100.842075" lat="13.886463">
                <ele>-9.956543</ele>
                <time>2006-08-27T06:53:14Z</time>
            </trkpt>
            <trkpt lon="100.842125" lat="13.886443">
                <ele>-10.437256</ele>
                <time>2006-08-27T06:53:19Z</time>
            </trkpt>
            <trkpt lon="100.842174" lat="13.886451">
                <ele>-6.111206</ele>
                <time>2006-08-27T06:53:33Z</time>
            </trkpt>
            <trkpt lon="100.842166" lat="13.886450">
                <ele>-1.304688</ele>
                <time>2006-08-27T06:55:02Z</time>
            </trkpt>
            <trkpt lon="100.842186" lat="13.886441">
                <ele>-1.304688</ele>
                <time>2006-08-27T06:55:06Z</time>
            </trkpt>
            <trkpt lon="100.842441" lat="13.886394">
                <ele>-0.343384</ele>
                <time>2006-08-27T06:55:17Z</time>
            </trkpt>
            <trkpt lon="100.842953" lat="13.886291">
                <ele>-1.785278</ele>
                <time>2006-08-27T06:55:35Z</time>
            </trkpt>
            <trkpt lon="100.843170" lat="13.886090">
                <ele>-3.227295</ele>
                <time>2006-08-27T06:55:47Z</time>
            </trkpt>
            <trkpt lon="100.843161" lat="13.885724">
                <ele>-2.265991</ele>
                <time>2006-08-27T06:56:01Z</time>
            </trkpt>
            <trkpt lon="100.843166" lat="13.885429">
                <ele>-1.304688</ele>
                <time>2006-08-27T06:56:16Z</time>
            </trkpt>
            <trkpt lon="100.843184" lat="13.884978">
                <ele>-1.785278</ele>
                <time>2006-08-27T06:56:34Z</time>
            </trkpt>
            <trkpt lon="100.843190" lat="13.884947">
                <ele>-2.265991</ele>
                <time>2006-08-27T06:56:45Z</time>
            </trkpt>
            <trkpt lon="100.843196" lat="13.884954">
                <ele>-2.746704</ele>
                <time>2006-08-27T06:57:13Z</time>
            </trkpt>
            <trkpt lon="100.843196" lat="13.884954">
                <ele>-2.746704</ele>
                <time>2006-08-27T06:57:14Z</time>
            </trkpt>
            <trkpt lon="100.843178" lat="13.885400">
                <ele>-4.188599</ele>
                <time>2006-08-27T06:57:34Z</time>
            </trkpt>
            <trkpt lon="100.843176" lat="13.885913">
                <ele>-3.707886</ele>
                <time>2006-08-27T06:57:51Z</time>
            </trkpt>
            <trkpt lon="100.843178" lat="13.885971">
                <ele>-3.707886</ele>
                <time>2006-08-27T06:57:54Z</time>
            </trkpt>
            <trkpt lon="100.843096" lat="13.885992">
                <ele>-3.707886</ele>
                <time>2006-08-27T06:57:59Z</time>
            </trkpt>
            <trkpt lon="100.842998" lat="13.886018">
                <ele>-3.707886</ele>
                <time>2006-08-27T06:58:04Z</time>
            </trkpt>
            <trkpt lon="100.842983" lat="13.886041">
                <ele>-4.669312</ele>
                <time>2006-08-27T06:58:24Z</time>
            </trkpt>
            <trkpt lon="100.842981" lat="13.886020">
                <ele>-3.707886</ele>
                <time>2006-08-27T06:58:49Z</time>
            </trkpt>
            <trkpt lon="100.842979" lat="13.885996">
                <ele>-0.343384</ele>
                <time>2006-08-27T06:59:03Z</time>
            </trkpt>
            <trkpt lon="100.842994" lat="13.885993">
                <ele>-0.343384</ele>
                <time>2006-08-27T06:59:40Z</time>
            </trkpt>
            <trkpt lon="100.843018" lat="13.885986">
                <ele>3.021240</ele>
                <time>2006-08-27T07:01:03Z</time>
            </trkpt>
            <trkpt lon="100.843103" lat="13.885991">
                <ele>2.060059</ele>
                <time>2006-08-27T07:01:07Z</time>
            </trkpt>
            <trkpt lon="100.843148" lat="13.886001">
                <ele>2.540649</ele>
                <time>2006-08-27T07:01:09Z</time>
            </trkpt>
            <trkpt lon="100.843110" lat="13.886231">
                <ele>3.021240</ele>
                <time>2006-08-27T07:01:18Z</time>
            </trkpt>
            <trkpt lon="100.842563" lat="13.886371">
                <ele>1.579346</ele>
                <time>2006-08-27T07:01:33Z</time>
            </trkpt>
            <trkpt lon="100.841782" lat="13.886486">
                <ele>-1.785278</ele>
                <time>2006-08-27T07:01:51Z</time>
            </trkpt>
            <trkpt lon="100.841055" lat="13.886668">
                <ele>-1.785278</ele>
                <time>2006-08-27T07:02:08Z</time>
            </trkpt>
            <trkpt lon="100.840198" lat="13.887054">
                <ele>-3.227295</ele>
                <time>2006-08-27T07:02:27Z</time>
            </trkpt>
            <trkpt lon="100.839922" lat="13.887129">
                <ele>-3.227295</ele>
                <time>2006-08-27T07:02:33Z</time>
            </trkpt>
            <trkpt lon="100.839116" lat="13.887604">
                <ele>-0.824097</ele>
                <time>2006-08-27T07:02:53Z</time>
            </trkpt>
            <trkpt lon="100.839026" lat="13.887641">
                <ele>-0.824097</ele>
                <time>2006-08-27T07:02:55Z</time>
            </trkpt>
            <trkpt lon="100.837594" lat="13.887833">
                <ele>1.098633</ele>
                <time>2006-08-27T07:03:25Z</time>
            </trkpt>
            <trkpt lon="100.836676" lat="13.888464">
                <ele>-1.304688</ele>
                <time>2006-08-27T07:03:46Z</time>
            </trkpt>
            <trkpt lon="100.836534" lat="13.888544">
                <ele>-1.304688</ele>
                <time>2006-08-27T07:03:49Z</time>
            </trkpt>
            <trkpt lon="100.835550" lat="13.888803">
                <ele>-2.265991</ele>
                <time>2006-08-27T07:04:08Z</time>
            </trkpt>
            <trkpt lon="100.835078" lat="13.888901">
                <ele>-2.746704</ele>
                <time>2006-08-27T07:04:17Z</time>
            </trkpt>
            <trkpt lon="100.834137" lat="13.888996">
                <ele>-1.785278</ele>
                <time>2006-08-27T07:04:35Z</time>
            </trkpt>
            <trkpt lon="100.833119" lat="13.888967">
                <ele>-1.304688</ele>
                <time>2006-08-27T07:04:56Z</time>
            </trkpt>
            <trkpt lon="100.832328" lat="13.889001">
                <ele>-1.304688</ele>
                <time>2006-08-27T07:05:13Z</time>
            </trkpt>
            <trkpt lon="100.831512" lat="13.889110">
                <ele>-0.824097</ele>
                <time>2006-08-27T07:05:30Z</time>
            </trkpt>
            <trkpt lon="100.830744" lat="13.889178">
                <ele>-0.343384</ele>
                <time>2006-08-27T07:05:47Z</time>
            </trkpt>
            <trkpt lon="100.830112" lat="13.889132">
                <ele>0.618042</ele>
                <time>2006-08-27T07:06:01Z</time>
            </trkpt>
            <trkpt lon="100.830009" lat="13.888916">
                <ele>1.579346</ele>
                <time>2006-08-27T07:06:10Z</time>
            </trkpt>
            <trkpt lon="100.829682" lat="13.888949">
                <ele>3.021240</ele>
                <time>2006-08-27T07:06:18Z</time>
            </trkpt>
            <trkpt lon="100.829393" lat="13.888797">
                <ele>3.982666</ele>
                <time>2006-08-27T07:06:27Z</time>
            </trkpt>
            <trkpt lon="100.829486" lat="13.888076">
                <ele>5.905273</ele>
                <time>2006-08-27T07:06:45Z</time>
            </trkpt>
            <trkpt lon="100.829789" lat="13.887608">
                <ele>9.750610</ele>
                <time>2006-08-27T07:06:58Z</time>
            </trkpt>
            <trkpt lon="100.829883" lat="13.887459">
                <ele>9.750610</ele>
                <time>2006-08-27T07:07:02Z</time>
            </trkpt>
            <trkpt lon="100.830367" lat="13.886787">
                <ele>9.750610</ele>
                <time>2006-08-27T07:07:20Z</time>
            </trkpt>
            <trkpt lon="100.830604" lat="13.886289">
                <ele>9.750610</ele>
                <time>2006-08-27T07:07:35Z</time>
            </trkpt>
            <trkpt lon="100.830849" lat="13.885481">
                <ele>11.673218</ele>
                <time>2006-08-27T07:07:54Z</time>
            </trkpt>
            <trkpt lon="100.830969" lat="13.885141">
                <ele>13.595825</ele>
                <time>2006-08-27T07:08:02Z</time>
            </trkpt>
            <trkpt lon="100.831367" lat="13.884162">
                <ele>11.192505</ele>
                <time>2006-08-27T07:08:25Z</time>
            </trkpt>
            <trkpt lon="100.831639" lat="13.883483">
                <ele>9.750610</ele>
                <time>2006-08-27T07:08:42Z</time>
            </trkpt>
            <trkpt lon="100.831759" lat="13.882776">
                <ele>7.827881</ele>
                <time>2006-08-27T07:09:01Z</time>
            </trkpt>
            <trkpt lon="100.832069" lat="13.882029">
                <ele>3.982666</ele>
                <time>2006-08-27T07:09:20Z</time>
            </trkpt>
            <trkpt lon="100.832184" lat="13.881331">
                <ele>3.982666</ele>
                <time>2006-08-27T07:09:35Z</time>
            </trkpt>
            <trkpt lon="100.832050" lat="13.880504">
                <ele>4.943848</ele>
                <time>2006-08-27T07:09:53Z</time>
            </trkpt>
            <trkpt lon="100.832038" lat="13.880462">
                <ele>5.424561</ele>
                <time>2006-08-27T07:09:54Z</time>
            </trkpt>
            <trkpt lon="100.831888" lat="13.880211">
                <ele>5.424561</ele>
                <time>2006-08-27T07:10:06Z</time>
            </trkpt>
            <trkpt lon="100.831876" lat="13.880206">
                <ele>9.750610</ele>
                <time>2006-08-27T07:10:45Z</time>
            </trkpt>
            <trkpt lon="100.831883" lat="13.880245">
                <ele>9.269897</ele>
                <time>2006-08-27T07:11:02Z</time>
            </trkpt>
            <trkpt lon="100.831884" lat="13.880246">
                <ele>9.269897</ele>
                <time>2006-08-27T07:11:07Z</time>
            </trkpt>
            <trkpt lon="100.832075" lat="13.880609">
                <ele>10.231201</ele>
                <time>2006-08-27T07:11:20Z</time>
            </trkpt>
            <trkpt lon="100.832098" lat="13.880687">
                <ele>9.750610</ele>
                <time>2006-08-27T07:11:22Z</time>
            </trkpt>
            <trkpt lon="100.832194" lat="13.881513">
                <ele>6.866455</ele>
                <time>2006-08-27T07:11:39Z</time>
            </trkpt>
            <trkpt lon="100.831946" lat="13.882324">
                <ele>4.463257</ele>
                <time>2006-08-27T07:11:55Z</time>
            </trkpt>
            <trkpt lon="100.831663" lat="13.883264">
                <ele>3.501953</ele>
                <time>2006-08-27T07:12:13Z</time>
            </trkpt>
            <trkpt lon="100.831643" lat="13.883432">
                <ele>3.021240</ele>
                <time>2006-08-27T07:12:16Z</time>
            </trkpt>
            <trkpt lon="100.831400" lat="13.884095">
                <ele>2.060059</ele>
                <time>2006-08-27T07:12:31Z</time>
            </trkpt>
            <trkpt lon="100.831385" lat="13.884121">
                <ele>2.060059</ele>
                <time>2006-08-27T07:12:32Z</time>
            </trkpt>
            <trkpt lon="100.831273" lat="13.884120">
                <ele>3.021240</ele>
                <time>2006-08-27T07:12:37Z</time>
            </trkpt>
            <trkpt lon="100.831169" lat="13.884089">
                <ele>2.060059</ele>
                <time>2006-08-27T07:12:41Z</time>
            </trkpt>
            <trkpt lon="100.831167" lat="13.884006">
                <ele>2.540649</ele>
                <time>2006-08-27T07:12:45Z</time>
            </trkpt>
            <trkpt lon="100.831376" lat="13.883282">
                <ele>5.424561</ele>
                <time>2006-08-27T07:13:03Z</time>
            </trkpt>
            <trkpt lon="100.831570" lat="13.882534">
                <ele>6.866455</ele>
                <time>2006-08-27T07:13:20Z</time>
            </trkpt>
            <trkpt lon="100.831887" lat="13.881719">
                <ele>8.789185</ele>
                <time>2006-08-27T07:13:38Z</time>
            </trkpt>
            <trkpt lon="100.831893" lat="13.880970">
                <ele>9.269897</ele>
                <time>2006-08-27T07:13:54Z</time>
            </trkpt>
            <trkpt lon="100.831830" lat="13.880597">
                <ele>9.269897</ele>
                <time>2006-08-27T07:14:02Z</time>
            </trkpt>
            <trkpt lon="100.831775" lat="13.880467">
                <ele>9.269897</ele>
                <time>2006-08-27T07:14:05Z</time>
            </trkpt>
            <trkpt lon="100.831202" lat="13.879990">
                <ele>6.866455</ele>
                <time>2006-08-27T07:14:20Z</time>
            </trkpt>
            <trkpt lon="100.830119" lat="13.879545">
                <ele>5.905273</ele>
                <time>2006-08-27T07:14:43Z</time>
            </trkpt>
            <trkpt lon="100.829275" lat="13.878936">
                <ele>4.463257</ele>
                <time>2006-08-27T07:15:04Z</time>
            </trkpt>
            <trkpt lon="100.829183" lat="13.878875">
                <ele>3.982666</ele>
                <time>2006-08-27T07:15:06Z</time>
            </trkpt>
            <trkpt lon="100.828266" lat="13.878578">
                <ele>3.982666</ele>
                <time>2006-08-27T07:15:24Z</time>
            </trkpt>
            <trkpt lon="100.827242" lat="13.878210">
                <ele>3.501953</ele>
                <time>2006-08-27T07:15:45Z</time>
            </trkpt>
            <trkpt lon="100.826500" lat="13.877723">
                <ele>4.943848</ele>
                <time>2006-08-27T07:16:04Z</time>
            </trkpt>
            <trkpt lon="100.825893" lat="13.877158">
                <ele>4.463257</ele>
                <time>2006-08-27T07:16:21Z</time>
            </trkpt>
            <trkpt lon="100.825723" lat="13.877066">
                <ele>4.463257</ele>
                <time>2006-08-27T07:16:25Z</time>
            </trkpt>
            <trkpt lon="100.824858" lat="13.876629">
                <ele>4.943848</ele>
                <time>2006-08-27T07:16:45Z</time>
            </trkpt>
            <trkpt lon="100.824502" lat="13.876360">
                <ele>4.943848</ele>
                <time>2006-08-27T07:16:55Z</time>
            </trkpt>
            <trkpt lon="100.823964" lat="13.875645">
                <ele>4.943848</ele>
                <time>2006-08-27T07:17:15Z</time>
            </trkpt>
            <trkpt lon="100.823550" lat="13.875030">
                <ele>4.943848</ele>
                <time>2006-08-27T07:17:31Z</time>
            </trkpt>
            <trkpt lon="100.823487" lat="13.874920">
                <ele>4.463257</ele>
                <time>2006-08-27T07:17:34Z</time>
            </trkpt>
            <trkpt lon="100.823366" lat="13.874616">
                <ele>4.943848</ele>
                <time>2006-08-27T07:17:42Z</time>
            </trkpt>
            <trkpt lon="100.822799" lat="13.873855">
                <ele>4.463257</ele>
                <time>2006-08-27T07:18:04Z</time>
            </trkpt>
            <trkpt lon="100.822532" lat="13.873700">
                <ele>4.463257</ele>
                <time>2006-08-27T07:18:11Z</time>
            </trkpt>
            <trkpt lon="100.822384" lat="13.873709">
                <ele>4.463257</ele>
                <time>2006-08-27T07:18:15Z</time>
            </trkpt>
            <trkpt lon="100.822336" lat="13.873743">
                <ele>3.982666</ele>
                <time>2006-08-27T07:18:17Z</time>
            </trkpt>
            <trkpt lon="100.822344" lat="13.873906">
                <ele>3.982666</ele>
                <time>2006-08-27T07:18:23Z</time>
            </trkpt>
            <trkpt lon="100.822367" lat="13.873982">
                <ele>4.463257</ele>
                <time>2006-08-27T07:18:25Z</time>
            </trkpt>
            <trkpt lon="100.822227" lat="13.874573">
                <ele>3.982666</ele>
                <time>2006-08-27T07:18:39Z</time>
            </trkpt>
            <trkpt lon="100.821701" lat="13.875335">
                <ele>1.579346</ele>
                <time>2006-08-27T07:18:57Z</time>
            </trkpt>
            <trkpt lon="100.820915" lat="13.876353">
                <ele>1.098633</ele>
                <time>2006-08-27T07:19:20Z</time>
            </trkpt>
            <trkpt lon="100.820367" lat="13.877320">
                <ele>0.137451</ele>
                <time>2006-08-27T07:19:40Z</time>
            </trkpt>
            <trkpt lon="100.820383" lat="13.878268">
                <ele>1.579346</ele>
                <time>2006-08-27T07:19:59Z</time>
            </trkpt>
            <trkpt lon="100.820274" lat="13.878410">
                <ele>2.060059</ele>
                <time>2006-08-27T07:20:04Z</time>
            </trkpt>
            <trkpt lon="100.820088" lat="13.878430">
                <ele>2.540649</ele>
                <time>2006-08-27T07:20:08Z</time>
            </trkpt>
            <trkpt lon="100.819911" lat="13.878480">
                <ele>3.982666</ele>
                <time>2006-08-27T07:20:12Z</time>
            </trkpt>
            <trkpt lon="100.819658" lat="13.878455">
                <ele>5.424561</ele>
                <time>2006-08-27T07:20:18Z</time>
            </trkpt>
            <trkpt lon="100.818779" lat="13.878549">
                <ele>3.501953</ele>
                <time>2006-08-27T07:20:36Z</time>
            </trkpt>
            <trkpt lon="100.818614" lat="13.878649">
                <ele>3.501953</ele>
                <time>2006-08-27T07:20:40Z</time>
            </trkpt>
            <trkpt lon="100.817873" lat="13.879517">
                <ele>2.540649</ele>
                <time>2006-08-27T07:21:02Z</time>
            </trkpt>
            <trkpt lon="100.817055" lat="13.880497">
                <ele>1.579346</ele>
                <time>2006-08-27T07:21:25Z</time>
            </trkpt>
            <trkpt lon="100.816208" lat="13.881510">
                <ele>1.579346</ele>
                <time>2006-08-27T07:21:48Z</time>
            </trkpt>
            <trkpt lon="100.815402" lat="13.882471">
                <ele>2.540649</ele>
                <time>2006-08-27T07:22:10Z</time>
            </trkpt>
            <trkpt lon="100.814493" lat="13.883490">
                <ele>3.021240</ele>
                <time>2006-08-27T07:22:34Z</time>
            </trkpt>
            <trkpt lon="100.814215" lat="13.883563">
                <ele>3.021240</ele>
                <time>2006-08-27T07:22:39Z</time>
            </trkpt>
            <trkpt lon="100.813032" lat="13.883609">
                <ele>3.021240</ele>
                <time>2006-08-27T07:23:00Z</time>
            </trkpt>
            <trkpt lon="100.811744" lat="13.883649">
                <ele>3.021240</ele>
                <time>2006-08-27T07:23:23Z</time>
            </trkpt>
            <trkpt lon="100.810504" lat="13.883686">
                <ele>2.540649</ele>
                <time>2006-08-27T07:23:46Z</time>
            </trkpt>
            <trkpt lon="100.809622" lat="13.883718">
                <ele>2.540649</ele>
                <time>2006-08-27T07:24:06Z</time>
            </trkpt>
            <trkpt lon="100.809266" lat="13.883769">
                <ele>2.540649</ele>
                <time>2006-08-27T07:24:17Z</time>
            </trkpt>
            <trkpt lon="100.808653" lat="13.883763">
                <ele>3.021240</ele>
                <time>2006-08-27T07:24:33Z</time>
            </trkpt>
            <trkpt lon="100.808277" lat="13.883780">
                <ele>3.021240</ele>
                <time>2006-08-27T07:24:48Z</time>
            </trkpt>
            <trkpt lon="100.807892" lat="13.883856">
                <ele>3.982666</ele>
                <time>2006-08-27T07:25:01Z</time>
            </trkpt>
            <trkpt lon="100.806923" lat="13.884125">
                <ele>3.501953</ele>
                <time>2006-08-27T07:25:21Z</time>
            </trkpt>
            <trkpt lon="100.806157" lat="13.884331">
                <ele>4.463257</ele>
                <time>2006-08-27T07:25:38Z</time>
            </trkpt>
            <trkpt lon="100.806102" lat="13.884234">
                <ele>4.463257</ele>
                <time>2006-08-27T07:25:42Z</time>
            </trkpt>
            <trkpt lon="100.805967" lat="13.883437">
                <ele>4.943848</ele>
                <time>2006-08-27T07:26:01Z</time>
            </trkpt>
            <trkpt lon="100.805766" lat="13.882351">
                <ele>6.866455</ele>
                <time>2006-08-27T07:26:24Z</time>
            </trkpt>
            <trkpt lon="100.806047" lat="13.881601">
                <ele>5.905273</ele>
                <time>2006-08-27T07:35:57Z</time>
            </trkpt>
            <trkpt lon="100.805687" lat="13.881700">
                <ele>5.905273</ele>
                <time>2006-08-27T07:36:10Z</time>
            </trkpt>
            <trkpt lon="100.805654" lat="13.881558">
                <ele>5.424561</ele>
                <time>2006-08-27T07:36:19Z</time>
            </trkpt>
            <trkpt lon="100.805660" lat="13.881085">
                <ele>3.982666</ele>
                <time>2006-08-27T07:36:35Z</time>
            </trkpt>
            <trkpt lon="100.805671" lat="13.880563">
                <ele>3.021240</ele>
                <time>2006-08-27T07:36:50Z</time>
            </trkpt>
            <trkpt lon="100.805548" lat="13.880540">
                <ele>2.540649</ele>
                <time>2006-08-27T07:36:56Z</time>
            </trkpt>
            <trkpt lon="100.804908" lat="13.880731">
                <ele>3.501953</ele>
                <time>2006-08-27T07:37:14Z</time>
            </trkpt>
            <trkpt lon="100.804022" lat="13.880991">
                <ele>4.943848</ele>
                <time>2006-08-27T07:37:40Z</time>
            </trkpt>
            <trkpt lon="100.803408" lat="13.881155">
                <ele>3.982666</ele>
                <time>2006-08-27T07:38:00Z</time>
            </trkpt>
            <trkpt lon="100.802744" lat="13.881332">
                <ele>3.982666</ele>
                <time>2006-08-27T07:38:21Z</time>
            </trkpt>
            <trkpt lon="100.802001" lat="13.881533">
                <ele>3.982666</ele>
                <time>2006-08-27T07:38:44Z</time>
            </trkpt>
            <trkpt lon="100.801314" lat="13.881714">
                <ele>3.501953</ele>
                <time>2006-08-27T07:39:06Z</time>
            </trkpt>
            <trkpt lon="100.800775" lat="13.881878">
                <ele>4.463257</ele>
                <time>2006-08-27T07:39:25Z</time>
            </trkpt>
            <trkpt lon="100.800309" lat="13.882025">
                <ele>4.943848</ele>
                <time>2006-08-27T07:39:44Z</time>
            </trkpt>
            <trkpt lon="100.800066" lat="13.882110">
                <ele>4.943848</ele>
                <time>2006-08-27T07:39:55Z</time>
            </trkpt>
            <trkpt lon="100.800043" lat="13.882197">
                <ele>3.982666</ele>
                <time>2006-08-27T07:40:06Z</time>
            </trkpt>
            <trkpt lon="100.800024" lat="13.882192">
                <ele>3.501953</ele>
                <time>2006-08-27T07:40:13Z</time>
            </trkpt>
            <trkpt lon="100.799653" lat="13.882145">
                <ele>3.501953</ele>
                <time>2006-08-27T07:40:28Z</time>
            </trkpt>
            <trkpt lon="100.799332" lat="13.882114">
                <ele>3.021240</ele>
                <time>2006-08-27T07:40:40Z</time>
            </trkpt>
            <trkpt lon="100.799282" lat="13.882177">
                <ele>2.540649</ele>
                <time>2006-08-27T07:40:45Z</time>
            </trkpt>
            <trkpt lon="100.799261" lat="13.882234">
                <ele>2.060059</ele>
                <time>2006-08-27T07:40:57Z</time>
            </trkpt>
            <trkpt lon="100.799242" lat="13.882237">
                <ele>2.060059</ele>
                <time>2006-08-27T07:40:59Z</time>
            </trkpt>
            <trkpt lon="100.799094" lat="13.882215">
                <ele>3.501953</ele>
                <time>2006-08-27T07:41:12Z</time>
            </trkpt>
            <trkpt lon="100.798690" lat="13.882178">
                <ele>3.501953</ele>
                <time>2006-08-27T07:41:29Z</time>
            </trkpt>
            <trkpt lon="100.798536" lat="13.882160">
                <ele>3.982666</ele>
                <time>2006-08-27T07:41:36Z</time>
            </trkpt>
            <trkpt lon="100.798503" lat="13.882066">
                <ele>3.021240</ele>
                <time>2006-08-27T07:41:41Z</time>
            </trkpt>
            <trkpt lon="100.798653" lat="13.881504">
                <ele>2.540649</ele>
                <time>2006-08-27T07:41:58Z</time>
            </trkpt>
            <trkpt lon="100.798761" lat="13.881000">
                <ele>3.501953</ele>
                <time>2006-08-27T07:42:13Z</time>
            </trkpt>
            <trkpt lon="100.798900" lat="13.880438">
                <ele>2.540649</ele>
                <time>2006-08-27T07:42:30Z</time>
            </trkpt>
            <trkpt lon="100.798988" lat="13.880024">
                <ele>2.060059</ele>
                <time>2006-08-27T07:42:45Z</time>
            </trkpt>
            <trkpt lon="100.799115" lat="13.879592">
                <ele>2.060059</ele>
                <time>2006-08-27T07:43:01Z</time>
            </trkpt>
            <trkpt lon="100.799253" lat="13.879179">
                <ele>2.060059</ele>
                <time>2006-08-27T07:43:16Z</time>
            </trkpt>
            <trkpt lon="100.799303" lat="13.878903">
                <ele>1.098633</ele>
                <time>2006-08-27T07:43:26Z</time>
            </trkpt>
            <trkpt lon="100.799236" lat="13.878868">
                <ele>1.579346</ele>
                <time>2006-08-27T07:43:30Z</time>
            </trkpt>
            <trkpt lon="100.798862" lat="13.878799">
                <ele>2.540649</ele>
                <time>2006-08-27T07:43:45Z</time>
            </trkpt>
            <trkpt lon="100.798407" lat="13.878693">
                <ele>3.021240</ele>
                <time>2006-08-27T07:44:01Z</time>
            </trkpt>
            <trkpt lon="100.798342" lat="13.878678">
                <ele>3.501953</ele>
                <time>2006-08-27T07:44:04Z</time>
            </trkpt>
            <trkpt lon="100.798239" lat="13.878640">
                <ele>1.579346</ele>
                <time>2006-08-27T07:44:12Z</time>
            </trkpt>
            <trkpt lon="100.798072" lat="13.878430">
                <ele>-1.785278</ele>
                <time>2006-08-27T07:44:26Z</time>
            </trkpt>
            <trkpt lon="100.797955" lat="13.878566">
                <ele>-4.188599</ele>
                <time>2006-08-27T07:44:38Z</time>
            </trkpt>
            <trkpt lon="100.797910" lat="13.878875">
                <ele>-5.149902</ele>
                <time>2006-08-27T07:44:50Z</time>
            </trkpt>
            <trkpt lon="100.797759" lat="13.879387">
                <ele>-6.111206</ele>
                <time>2006-08-27T07:45:09Z</time>
            </trkpt>
            <trkpt lon="100.797642" lat="13.879860">
                <ele>-7.072510</ele>
                <time>2006-08-27T07:45:24Z</time>
            </trkpt>
            <trkpt lon="100.797363" lat="13.880558">
                <ele>-6.591919</ele>
                <time>2006-08-27T07:45:46Z</time>
            </trkpt>
            <trkpt lon="100.797166" lat="13.881034">
                <ele>-7.553101</ele>
                <time>2006-08-27T07:46:01Z</time>
            </trkpt>
            <trkpt lon="100.797088" lat="13.881241">
                <ele>-7.553101</ele>
                <time>2006-08-27T07:46:09Z</time>
            </trkpt>
            <trkpt lon="100.797091" lat="13.881327">
                <ele>-5.630493</ele>
                <time>2006-08-27T07:46:22Z</time>
            </trkpt>
            <trkpt lon="100.797106" lat="13.881370">
                <ele>-5.149902</ele>
                <time>2006-08-27T07:46:39Z</time>
            </trkpt>
            <trkpt lon="100.797093" lat="13.881471">
                <ele>-5.149902</ele>
                <time>2006-08-27T07:46:51Z</time>
            </trkpt>
            <trkpt lon="100.796966" lat="13.881740">
                <ele>-5.149902</ele>
                <time>2006-08-27T07:47:03Z</time>
            </trkpt>
            <trkpt lon="100.796756" lat="13.882203">
                <ele>-5.149902</ele>
                <time>2006-08-27T07:47:18Z</time>
            </trkpt>
            <trkpt lon="100.796481" lat="13.882870">
                <ele>-4.669312</ele>
                <time>2006-08-27T07:47:37Z</time>
            </trkpt>
            <trkpt lon="100.796370" lat="13.883374">
                <ele>-5.630493</ele>
                <time>2006-08-27T07:47:54Z</time>
            </trkpt>
            <trkpt lon="100.796357" lat="13.883550">
                <ele>-5.630493</ele>
                <time>2006-08-27T07:48:07Z</time>
            </trkpt>
            <trkpt lon="100.796368" lat="13.883539">
                <ele>-4.669312</ele>
                <time>2006-08-27T07:48:19Z</time>
            </trkpt>
            <trkpt lon="100.796393" lat="13.883271">
                <ele>-3.707886</ele>
                <time>2006-08-27T07:48:34Z</time>
            </trkpt>
            <trkpt lon="100.796415" lat="13.883156">
                <ele>-3.707886</ele>
                <time>2006-08-27T07:48:39Z</time>
            </trkpt>
            <trkpt lon="100.796438" lat="13.883130">
                <ele>-4.188599</ele>
                <time>2006-08-27T07:48:49Z</time>
            </trkpt>
            <trkpt lon="100.796437" lat="13.883138">
                <ele>-4.669312</ele>
                <time>2006-08-27T07:48:51Z</time>
            </trkpt>
            <trkpt lon="100.796398" lat="13.883270">
                <ele>-5.149902</ele>
                <time>2006-08-27T07:48:59Z</time>
            </trkpt>
            <trkpt lon="100.796365" lat="13.883464">
                <ele>-5.630493</ele>
                <time>2006-08-27T07:49:06Z</time>
            </trkpt>
            <trkpt lon="100.796337" lat="13.883607">
                <ele>-7.072510</ele>
                <time>2006-08-27T07:49:11Z</time>
            </trkpt>
            <trkpt lon="100.796445" lat="13.884316">
                <ele>-8.995239</ele>
                <time>2006-08-27T07:49:27Z</time>
            </trkpt>
            <trkpt lon="100.796411" lat="13.884850">
                <ele>-8.995239</ele>
                <time>2006-08-27T07:49:39Z</time>
            </trkpt>
            <trkpt lon="100.796403" lat="13.885032">
                <ele>-9.475830</ele>
                <time>2006-08-27T07:49:43Z</time>
            </trkpt>
            <trkpt lon="100.796439" lat="13.885939">
                <ele>-8.995239</ele>
                <time>2006-08-27T07:50:03Z</time>
            </trkpt>
            <trkpt lon="100.796361" lat="13.886432">
                <ele>-8.995239</ele>
                <time>2006-08-27T07:50:17Z</time>
            </trkpt>
            <trkpt lon="100.795936" lat="13.886731">
                <ele>-8.995239</ele>
                <time>2006-08-27T07:50:30Z</time>
            </trkpt>
            <trkpt lon="100.795728" lat="13.886761">
                <ele>-8.995239</ele>
                <time>2006-08-27T07:50:35Z</time>
            </trkpt>
            <trkpt lon="100.795454" lat="13.886673">
                <ele>-8.995239</ele>
                <time>2006-08-27T07:50:42Z</time>
            </trkpt>
            <trkpt lon="100.795256" lat="13.885982">
                <ele>-8.514648</ele>
                <time>2006-08-27T07:51:01Z</time>
            </trkpt>
            <trkpt lon="100.795148" lat="13.885308">
                <ele>-8.995239</ele>
                <time>2006-08-27T07:51:19Z</time>
            </trkpt>
            <trkpt lon="100.794943" lat="13.884998">
                <ele>-8.995239</ele>
                <time>2006-08-27T07:51:32Z</time>
            </trkpt>
            <trkpt lon="100.794922" lat="13.884981">
                <ele>-8.514648</ele>
                <time>2006-08-27T07:52:02Z</time>
            </trkpt>
            <trkpt lon="100.794841" lat="13.884910">
                <ele>-8.514648</ele>
                <time>2006-08-27T07:52:07Z</time>
            </trkpt>
            <trkpt lon="100.794288" lat="13.884429">
                <ele>-8.995239</ele>
                <time>2006-08-27T07:52:26Z</time>
            </trkpt>
            <trkpt lon="100.793645" lat="13.883917">
                <ele>-8.995239</ele>
                <time>2006-08-27T07:52:45Z</time>
            </trkpt>
            <trkpt lon="100.793349" lat="13.883593">
                <ele>-8.514648</ele>
                <time>2006-08-27T07:52:56Z</time>
            </trkpt>
            <trkpt lon="100.793167" lat="13.883104">
                <ele>-8.033936</ele>
                <time>2006-08-27T07:53:10Z</time>
            </trkpt>
            <trkpt lon="100.793063" lat="13.883140">
                <ele>-7.553101</ele>
                <time>2006-08-27T07:53:17Z</time>
            </trkpt>
            <trkpt lon="100.792953" lat="13.883428">
                <ele>-4.188599</ele>
                <time>2006-08-27T07:53:35Z</time>
            </trkpt>
            <trkpt lon="100.793085" lat="13.883778">
                <ele>-3.227295</ele>
                <time>2006-08-27T07:53:50Z</time>
            </trkpt>
            <trkpt lon="100.793203" lat="13.884067">
                <ele>-1.304688</ele>
                <time>2006-08-27T07:54:04Z</time>
            </trkpt>
            <trkpt lon="100.793020" lat="13.884075">
                <ele>0.618042</ele>
                <time>2006-08-27T07:54:18Z</time>
            </trkpt>
            <trkpt lon="100.792783" lat="13.884117">
                <ele>0.137451</ele>
                <time>2006-08-27T07:54:31Z</time>
            </trkpt>
            <trkpt lon="100.792686" lat="13.884392">
                <ele>0.137451</ele>
                <time>2006-08-27T07:54:43Z</time>
            </trkpt>
            <trkpt lon="100.792620" lat="13.884452">
                <ele>0.618042</ele>
                <time>2006-08-27T07:54:47Z</time>
            </trkpt>
            <trkpt lon="100.792538" lat="13.884222">
                <ele>1.098633</ele>
                <time>2006-08-27T07:54:58Z</time>
            </trkpt>
            <trkpt lon="100.792409" lat="13.883875">
                <ele>2.060059</ele>
                <time>2006-08-27T07:55:08Z</time>
            </trkpt>
            <trkpt lon="100.792156" lat="13.883651">
                <ele>2.060059</ele>
                <time>2006-08-27T07:55:18Z</time>
            </trkpt>
            <trkpt lon="100.791922" lat="13.883368">
                <ele>3.021240</ele>
                <time>2006-08-27T07:55:32Z</time>
            </trkpt>
            <trkpt lon="100.791534" lat="13.882794">
                <ele>2.540649</ele>
                <time>2006-08-27T07:55:49Z</time>
            </trkpt>
            <trkpt lon="100.791032" lat="13.881989">
                <ele>2.060059</ele>
                <time>2006-08-27T07:56:10Z</time>
            </trkpt>
            <trkpt lon="100.790418" lat="13.881396">
                <ele>2.540649</ele>
                <time>2006-08-27T07:56:27Z</time>
            </trkpt>
            <trkpt lon="100.790064" lat="13.881107">
                <ele>3.021240</ele>
                <time>2006-08-27T07:56:36Z</time>
            </trkpt>
            <trkpt lon="100.789209" lat="13.880879">
                <ele>3.501953</ele>
                <time>2006-08-27T07:56:55Z</time>
            </trkpt>
            <trkpt lon="100.788914" lat="13.880678">
                <ele>3.021240</ele>
                <time>2006-08-27T07:57:02Z</time>
            </trkpt>
            <trkpt lon="100.788693" lat="13.880381">
                <ele>2.540649</ele>
                <time>2006-08-27T07:57:09Z</time>
            </trkpt>
            <trkpt lon="100.788416" lat="13.880185">
                <ele>2.060059</ele>
                <time>2006-08-27T07:57:16Z</time>
            </trkpt>
            <trkpt lon="100.788322" lat="13.880147">
                <ele>2.060059</ele>
                <time>2006-08-27T07:57:18Z</time>
            </trkpt>
            <trkpt lon="100.788073" lat="13.880129">
                <ele>2.060059</ele>
                <time>2006-08-27T07:57:23Z</time>
            </trkpt>
            <trkpt lon="100.787874" lat="13.880075">
                <ele>1.579346</ele>
                <time>2006-08-27T07:57:28Z</time>
            </trkpt>
            <trkpt lon="100.787795" lat="13.880137">
                <ele>2.060059</ele>
                <time>2006-08-27T07:57:32Z</time>
            </trkpt>
            <trkpt lon="100.787766" lat="13.880300">
                <ele>1.098633</ele>
                <time>2006-08-27T07:57:44Z</time>
            </trkpt>
            <trkpt lon="100.787780" lat="13.880282">
                <ele>1.098633</ele>
                <time>2006-08-27T07:57:47Z</time>
            </trkpt>
            <trkpt lon="100.787625" lat="13.880208">
                <ele>1.098633</ele>
                <time>2006-08-27T07:57:54Z</time>
            </trkpt>
            <trkpt lon="100.787297" lat="13.880078">
                <ele>1.579346</ele>
                <time>2006-08-27T07:58:02Z</time>
            </trkpt>
            <trkpt lon="100.786372" lat="13.879748">
                <ele>2.060059</ele>
                <time>2006-08-27T07:58:23Z</time>
            </trkpt>
            <trkpt lon="100.785355" lat="13.879313">
                <ele>3.501953</ele>
                <time>2006-08-27T07:58:45Z</time>
            </trkpt>
            <trkpt lon="100.784980" lat="13.879134">
                <ele>2.540649</ele>
                <time>2006-08-27T07:58:53Z</time>
            </trkpt>
            <trkpt lon="100.784102" lat="13.878770">
                <ele>3.021240</ele>
                <time>2006-08-27T07:59:11Z</time>
            </trkpt>
            <trkpt lon="100.783256" lat="13.878228">
                <ele>2.540649</ele>
                <time>2006-08-27T07:59:30Z</time>
            </trkpt>
            <trkpt lon="100.782541" lat="13.877605">
                <ele>2.540649</ele>
                <time>2006-08-27T07:59:50Z</time>
            </trkpt>
            <trkpt lon="100.781869" lat="13.877002">
                <ele>1.579346</ele>
                <time>2006-08-27T08:00:12Z</time>
            </trkpt>
            <trkpt lon="100.781751" lat="13.876915">
                <ele>0.618042</ele>
                <time>2006-08-27T08:00:22Z</time>
            </trkpt>
            <trkpt lon="100.781762" lat="13.876899">
                <ele>0.618042</ele>
                <time>2006-08-27T08:01:42Z</time>
            </trkpt>
            <trkpt lon="100.781657" lat="13.877054">
                <ele>-0.343384</ele>
                <time>2006-08-27T08:01:49Z</time>
            </trkpt>
            <trkpt lon="100.781382" lat="13.877934">
                <ele>-0.824097</ele>
                <time>2006-08-27T08:02:09Z</time>
            </trkpt>
            <trkpt lon="100.781022" lat="13.879064">
                <ele>-0.343384</ele>
                <time>2006-08-27T08:02:33Z</time>
            </trkpt>
            <trkpt lon="100.780680" lat="13.880117">
                <ele>-0.343384</ele>
                <time>2006-08-27T08:02:54Z</time>
            </trkpt>
            <trkpt lon="100.780329" lat="13.881242">
                <ele>-0.343384</ele>
                <time>2006-08-27T08:03:16Z</time>
            </trkpt>
            <trkpt lon="100.779906" lat="13.882531">
                <ele>0.137451</ele>
                <time>2006-08-27T08:03:40Z</time>
            </trkpt>
            <trkpt lon="100.779514" lat="13.883724">
                <ele>0.137451</ele>
                <time>2006-08-27T08:04:01Z</time>
            </trkpt>
            <trkpt lon="100.779392" lat="13.884109">
                <ele>0.137451</ele>
                <time>2006-08-27T08:04:08Z</time>
            </trkpt>
            <trkpt lon="100.779525" lat="13.884383">
                <ele>0.137451</ele>
                <time>2006-08-27T08:04:14Z</time>
            </trkpt>
            <trkpt lon="100.780528" lat="13.885007">
                <ele>-0.343384</ele>
                <time>2006-08-27T08:04:34Z</time>
            </trkpt>
            <trkpt lon="100.780816" lat="13.885178">
                <ele>-0.343384</ele>
                <time>2006-08-27T08:04:40Z</time>
            </trkpt>
            <trkpt lon="100.780804" lat="13.885552">
                <ele>-0.343384</ele>
                <time>2006-08-27T08:04:48Z</time>
            </trkpt>
            <trkpt lon="100.780486" lat="13.886688">
                <ele>0.618042</ele>
                <time>2006-08-27T08:05:10Z</time>
            </trkpt>
            <trkpt lon="100.780267" lat="13.887598">
                <ele>0.137451</ele>
                <time>2006-08-27T08:05:27Z</time>
            </trkpt>
            <trkpt lon="100.780064" lat="13.888446">
                <ele>0.618042</ele>
                <time>2006-08-27T08:05:45Z</time>
            </trkpt>
            <trkpt lon="100.779813" lat="13.889467">
                <ele>1.098633</ele>
                <time>2006-08-27T08:06:08Z</time>
            </trkpt>
            <trkpt lon="100.779946" lat="13.889832">
                <ele>0.618042</ele>
                <time>2006-08-27T08:06:23Z</time>
            </trkpt>
            <trkpt lon="100.779893" lat="13.889935">
                <ele>1.098633</ele>
                <time>2006-08-27T08:06:39Z</time>
            </trkpt>
            <trkpt lon="100.779880" lat="13.889998">
                <ele>-1.304688</ele>
                <time>2006-08-27T08:06:44Z</time>
            </trkpt>
            <trkpt lon="100.779797" lat="13.890001">
                <ele>-1.304688</ele>
                <time>2006-08-27T08:06:49Z</time>
            </trkpt>
            <trkpt lon="100.779380" lat="13.889897">
                <ele>-0.824097</ele>
                <time>2006-08-27T08:07:04Z</time>
            </trkpt>
            <trkpt lon="100.778748" lat="13.889857">
                <ele>-0.343384</ele>
                <time>2006-08-27T08:07:23Z</time>
            </trkpt>
            <trkpt lon="100.778251" lat="13.889644">
                <ele>-0.343384</ele>
                <time>2006-08-27T08:07:39Z</time>
            </trkpt>
            <trkpt lon="100.777707" lat="13.889694">
                <ele>-1.304688</ele>
                <time>2006-08-27T08:07:55Z</time>
            </trkpt>
            <trkpt lon="100.777176" lat="13.889843">
                <ele>-1.304688</ele>
                <time>2006-08-27T08:08:11Z</time>
            </trkpt>
            <trkpt lon="100.776938" lat="13.890250">
                <ele>-0.824097</ele>
                <time>2006-08-27T08:08:25Z</time>
            </trkpt>
            <trkpt lon="100.776792" lat="13.890587">
                <ele>-0.824097</ele>
                <time>2006-08-27T08:08:39Z</time>
            </trkpt>
            <trkpt lon="100.776714" lat="13.890930">
                <ele>-0.824097</ele>
                <time>2006-08-27T08:08:53Z</time>
            </trkpt>
            <trkpt lon="100.776898" lat="13.891203">
                <ele>-0.824097</ele>
                <time>2006-08-27T08:09:07Z</time>
            </trkpt>
            <trkpt lon="100.777208" lat="13.891552">
                <ele>-0.824097</ele>
                <time>2006-08-27T08:09:22Z</time>
            </trkpt>
            <trkpt lon="100.777559" lat="13.891978">
                <ele>0.137451</ele>
                <time>2006-08-27T08:09:39Z</time>
            </trkpt>
            <trkpt lon="100.777852" lat="13.892328">
                <ele>0.618042</ele>
                <time>2006-08-27T08:09:53Z</time>
            </trkpt>
            <trkpt lon="100.778278" lat="13.892732">
                <ele>-0.343384</ele>
                <time>2006-08-27T08:10:09Z</time>
            </trkpt>
            <trkpt lon="100.778791" lat="13.893142">
                <ele>-0.343384</ele>
                <time>2006-08-27T08:10:25Z</time>
            </trkpt>
            <trkpt lon="100.779381" lat="13.893555">
                <ele>-0.343384</ele>
                <time>2006-08-27T08:10:43Z</time>
            </trkpt>
            <trkpt lon="100.779647" lat="13.893768">
                <ele>0.137451</ele>
                <time>2006-08-27T08:10:51Z</time>
            </trkpt>
            <trkpt lon="100.780257" lat="13.894167">
                <ele>-0.343384</ele>
                <time>2006-08-27T08:11:10Z</time>
            </trkpt>
            <trkpt lon="100.780837" lat="13.894497">
                <ele>-0.824097</ele>
                <time>2006-08-27T08:11:26Z</time>
            </trkpt>
            <trkpt lon="100.781403" lat="13.894923">
                <ele>-0.824097</ele>
                <time>2006-08-27T08:11:44Z</time>
            </trkpt>
            <trkpt lon="100.781891" lat="13.895368">
                <ele>-1.785278</ele>
                <time>2006-08-27T08:11:58Z</time>
            </trkpt>
            <trkpt lon="100.782248" lat="13.895586">
                <ele>-0.824097</ele>
                <time>2006-08-27T08:12:08Z</time>
            </trkpt>
            <trkpt lon="100.782884" lat="13.895885">
                <ele>-0.824097</ele>
                <time>2006-08-27T08:12:24Z</time>
            </trkpt>
            <trkpt lon="100.783437" lat="13.896149">
                <ele>-1.304688</ele>
                <time>2006-08-27T08:12:39Z</time>
            </trkpt>
            <trkpt lon="100.783707" lat="13.896306">
                <ele>-0.824097</ele>
                <time>2006-08-27T08:12:46Z</time>
            </trkpt>
            <trkpt lon="100.784315" lat="13.896452">
                <ele>-1.304688</ele>
                <time>2006-08-27T08:12:59Z</time>
            </trkpt>
            <trkpt lon="100.784759" lat="13.896574">
                <ele>-1.785278</ele>
                <time>2006-08-27T08:13:09Z</time>
            </trkpt>
            <trkpt lon="100.784796" lat="13.896722">
                <ele>-1.304688</ele>
                <time>2006-08-27T08:13:13Z</time>
            </trkpt>
            <trkpt lon="100.784739" lat="13.897081">
                <ele>-1.304688</ele>
                <time>2006-08-27T08:13:21Z</time>
            </trkpt>
            <trkpt lon="100.784931" lat="13.897222">
                <ele>-0.824097</ele>
                <time>2006-08-27T08:13:28Z</time>
            </trkpt>
            <trkpt lon="100.785874" lat="13.897211">
                <ele>-0.343384</ele>
                <time>2006-08-27T08:13:47Z</time>
            </trkpt>
            <trkpt lon="100.787095" lat="13.897196">
                <ele>-0.343384</ele>
                <time>2006-08-27T08:14:10Z</time>
            </trkpt>
            <trkpt lon="100.788365" lat="13.897162">
                <ele>-0.824097</ele>
                <time>2006-08-27T08:14:32Z</time>
            </trkpt>
            <trkpt lon="100.789345" lat="13.897138">
                <ele>-0.824097</ele>
                <time>2006-08-27T08:14:50Z</time>
            </trkpt>
            <trkpt lon="100.789535" lat="13.897020">
                <ele>-0.824097</ele>
                <time>2006-08-27T08:14:55Z</time>
            </trkpt>
            <trkpt lon="100.790066" lat="13.896259">
                <ele>-1.304688</ele>
                <time>2006-08-27T08:15:15Z</time>
            </trkpt>
            <trkpt lon="100.790695" lat="13.895477">
                <ele>-1.304688</ele>
                <time>2006-08-27T08:15:35Z</time>
            </trkpt>
            <trkpt lon="100.791346" lat="13.894974">
                <ele>-2.265991</ele>
                <time>2006-08-27T08:18:56Z</time>
            </trkpt>
            <trkpt lon="100.791164" lat="13.894968">
                <ele>-2.265991</ele>
                <time>2006-08-27T08:19:07Z</time>
            </trkpt>
            <trkpt lon="100.791096" lat="13.894932">
                <ele>-0.824097</ele>
                <time>2006-08-27T08:19:19Z</time>
            </trkpt>
            <trkpt lon="100.791099" lat="13.894935">
                <ele>-0.343384</ele>
                <time>2006-08-27T08:19:35Z</time>
            </trkpt>
            <trkpt lon="100.790942" lat="13.894635">
                <ele>-1.304688</ele>
                <time>2006-08-27T08:19:52Z</time>
            </trkpt>
            <trkpt lon="100.790971" lat="13.894585">
                <ele>-0.824097</ele>
                <time>2006-08-27T08:19:56Z</time>
            </trkpt>
            <trkpt lon="100.791199" lat="13.894448">
                <ele>-1.304688</ele>
                <time>2006-08-27T08:20:09Z</time>
            </trkpt>
            <trkpt lon="100.791617" lat="13.894397">
                <ele>0.137451</ele>
                <time>2006-08-27T08:20:24Z</time>
            </trkpt>
            <trkpt lon="100.792039" lat="13.893898">
                <ele>1.579346</ele>
                <time>2006-08-27T08:20:42Z</time>
            </trkpt>
            <trkpt lon="100.792097" lat="13.893827">
                <ele>3.021240</ele>
                <time>2006-08-27T08:20:50Z</time>
            </trkpt>
            <trkpt lon="100.792183" lat="13.893700">
                <ele>3.021240</ele>
                <time>2006-08-27T08:21:05Z</time>
            </trkpt>
            <trkpt lon="100.792352" lat="13.893164">
                <ele>2.540649</ele>
                <time>2006-08-27T08:21:18Z</time>
            </trkpt>
            <trkpt lon="100.792381" lat="13.893075">
                <ele>3.021240</ele>
                <time>2006-08-27T08:21:20Z</time>
            </trkpt>
            <trkpt lon="100.792993" lat="13.892310">
                <ele>0.137451</ele>
                <time>2006-08-27T08:21:41Z</time>
            </trkpt>
            <trkpt lon="100.793382" lat="13.891970">
                <ele>-0.824097</ele>
                <time>2006-08-27T08:21:52Z</time>
            </trkpt>
            <trkpt lon="100.793576" lat="13.891942">
                <ele>-1.304688</ele>
                <time>2006-08-27T08:21:58Z</time>
            </trkpt>
            <trkpt lon="100.794318" lat="13.891516">
                <ele>-1.785278</ele>
                <time>2006-08-27T08:22:17Z</time>
            </trkpt>
            <trkpt lon="100.794587" lat="13.891328">
                <ele>-1.785278</ele>
                <time>2006-08-27T08:22:24Z</time>
            </trkpt>
            <trkpt lon="100.795588" lat="13.890875">
                <ele>-1.785278</ele>
                <time>2006-08-27T08:22:47Z</time>
            </trkpt>
            <trkpt lon="100.795962" lat="13.890662">
                <ele>0.137451</ele>
                <time>2006-08-27T08:23:01Z</time>
            </trkpt>
            <trkpt lon="100.796013" lat="13.890638">
                <ele>-0.824097</ele>
                <time>2006-08-27T08:23:03Z</time>
            </trkpt>
            <trkpt lon="100.796374" lat="13.890769">
                <ele>-0.824097</ele>
                <time>2006-08-27T08:23:13Z</time>
            </trkpt>
            <trkpt lon="100.797205" lat="13.890903">
                <ele>-2.265991</ele>
                <time>2006-08-27T08:23:32Z</time>
            </trkpt>
            <trkpt lon="100.797692" lat="13.891031">
                <ele>-2.746704</ele>
                <time>2006-08-27T08:23:42Z</time>
            </trkpt>
            <trkpt lon="100.797892" lat="13.891024">
                <ele>-2.746704</ele>
                <time>2006-08-27T08:23:46Z</time>
            </trkpt>
            <trkpt lon="100.798387" lat="13.890906">
                <ele>-2.265991</ele>
                <time>2006-08-27T08:23:56Z</time>
            </trkpt>
            <trkpt lon="100.799109" lat="13.890532">
                <ele>-1.785278</ele>
                <time>2006-08-27T08:24:12Z</time>
            </trkpt>
            <trkpt lon="100.799583" lat="13.890306">
                <ele>-1.785278</ele>
                <time>2006-08-27T08:24:23Z</time>
            </trkpt>
            <trkpt lon="100.800542" lat="13.890086">
                <ele>-1.785278</ele>
                <time>2006-08-27T08:24:43Z</time>
            </trkpt>
            <trkpt lon="100.801547" lat="13.889793">
                <ele>-1.785278</ele>
                <time>2006-08-27T08:25:03Z</time>
            </trkpt>
            <trkpt lon="100.802568" lat="13.889527">
                <ele>-2.265991</ele>
                <time>2006-08-27T08:25:23Z</time>
            </trkpt>
            <trkpt lon="100.803597" lat="13.889274">
                <ele>-2.746704</ele>
                <time>2006-08-27T08:25:42Z</time>
            </trkpt>
            <trkpt lon="100.804732" lat="13.888977">
                <ele>-3.227295</ele>
                <time>2006-08-27T08:26:03Z</time>
            </trkpt>
            <trkpt lon="100.805947" lat="13.888575">
                <ele>-2.746704</ele>
                <time>2006-08-27T08:26:26Z</time>
            </trkpt>
            <trkpt lon="100.806689" lat="13.888307">
                <ele>-1.785278</ele>
                <time>2006-08-27T08:26:40Z</time>
            </trkpt>
            <trkpt lon="100.806810" lat="13.888189">
                <ele>-1.304688</ele>
                <time>2006-08-27T08:26:47Z</time>
            </trkpt>
            <trkpt lon="100.806821" lat="13.888189">
                <ele>-0.343384</ele>
                <time>2006-08-27T08:26:54Z</time>
            </trkpt>
            <trkpt lon="100.806838" lat="13.888236">
                <ele>-0.343384</ele>
                <time>2006-08-27T08:26:58Z</time>
            </trkpt>
            <trkpt lon="100.806874" lat="13.888310">
                <ele>0.618042</ele>
                <time>2006-08-27T08:27:03Z</time>
            </trkpt>
            <trkpt lon="100.807150" lat="13.888146">
                <ele>1.098633</ele>
                <time>2006-08-27T08:27:11Z</time>
            </trkpt>
            <trkpt lon="100.807240" lat="13.888122">
                <ele>0.618042</ele>
                <time>2006-08-27T08:27:13Z</time>
            </trkpt>
            <trkpt lon="100.807500" lat="13.888160">
                <ele>-0.343384</ele>
                <time>2006-08-27T08:27:19Z</time>
            </trkpt>
            <trkpt lon="100.807896" lat="13.888420">
                <ele>-0.343384</ele>
                <time>2006-08-27T08:27:28Z</time>
            </trkpt>
            <trkpt lon="100.808285" lat="13.888695">
                <ele>0.137451</ele>
                <time>2006-08-27T08:27:37Z</time>
            </trkpt>
            <trkpt lon="100.808462" lat="13.888759">
                <ele>0.137451</ele>
                <time>2006-08-27T08:27:41Z</time>
            </trkpt>
            <trkpt lon="100.808573" lat="13.888754">
                <ele>-0.343384</ele>
                <time>2006-08-27T08:27:43Z</time>
            </trkpt>
            <trkpt lon="100.808968" lat="13.888668">
                <ele>1.098633</ele>
                <time>2006-08-27T08:27:54Z</time>
            </trkpt>
            <trkpt lon="100.809309" lat="13.888631">
                <ele>-1.304688</ele>
                <time>2006-08-27T08:28:00Z</time>
            </trkpt>
            <trkpt lon="100.809954" lat="13.888672">
                <ele>-3.227295</ele>
                <time>2006-08-27T08:28:11Z</time>
            </trkpt>
            <trkpt lon="100.810020" lat="13.888561">
                <ele>-2.746704</ele>
                <time>2006-08-27T08:28:15Z</time>
            </trkpt>
            <trkpt lon="100.810052" lat="13.888373">
                <ele>-2.265991</ele>
                <time>2006-08-27T08:28:20Z</time>
            </trkpt>
            <trkpt lon="100.810067" lat="13.888243">
                <ele>-2.265991</ele>
                <time>2006-08-27T08:28:23Z</time>
            </trkpt>
            <trkpt lon="100.809974" lat="13.887266">
                <ele>-1.785278</ele>
                <time>2006-08-27T08:28:43Z</time>
            </trkpt>
            <trkpt lon="100.809956" lat="13.886797">
                <ele>-2.265991</ele>
                <time>2006-08-27T08:28:55Z</time>
            </trkpt>
            <trkpt lon="100.810025" lat="13.886828">
                <ele>-1.304688</ele>
                <time>2006-08-27T08:29:05Z</time>
            </trkpt>
            <trkpt lon="100.810054" lat="13.886810">
                <ele>1.579346</ele>
                <time>2006-08-27T08:30:28Z</time>
            </trkpt>
            <trkpt lon="100.810046" lat="13.886813">
                <ele>5.424561</ele>
                <time>2006-08-27T08:47:04Z</time>
            </trkpt>
            <trkpt lon="100.810071" lat="13.886833">
                <ele>5.905273</ele>
                <time>2006-08-27T08:52:31Z</time>
            </trkpt>
            <trkpt lon="100.809989" lat="13.886881">
                <ele>4.943848</ele>
                <time>2006-08-27T08:52:38Z</time>
            </trkpt>
            <trkpt lon="100.809930" lat="13.887170">
                <ele>3.982666</ele>
                <time>2006-08-27T08:52:48Z</time>
            </trkpt>
            <trkpt lon="100.809959" lat="13.887473">
                <ele>3.021240</ele>
                <time>2006-08-27T08:52:55Z</time>
            </trkpt>
            <trkpt lon="100.810038" lat="13.888351">
                <ele>1.098633</ele>
                <time>2006-08-27T08:53:15Z</time>
            </trkpt>
            <trkpt lon="100.810134" lat="13.889344">
                <ele>0.137451</ele>
                <time>2006-08-27T08:53:36Z</time>
            </trkpt>
            <trkpt lon="100.810217" lat="13.890084">
                <ele>-0.824097</ele>
                <time>2006-08-27T08:53:53Z</time>
            </trkpt>
            <trkpt lon="100.810248" lat="13.890156">
                <ele>-0.343384</ele>
                <time>2006-08-27T08:53:55Z</time>
            </trkpt>
            <trkpt lon="100.810328" lat="13.890391">
                <ele>0.137451</ele>
                <time>2006-08-27T08:54:00Z</time>
            </trkpt>
            <trkpt lon="100.810383" lat="13.890756">
                <ele>0.618042</ele>
                <time>2006-08-27T08:54:07Z</time>
            </trkpt>
            <trkpt lon="100.810786" lat="13.890974">
                <ele>0.137451</ele>
                <time>2006-08-27T08:54:16Z</time>
            </trkpt>
            <trkpt lon="100.810952" lat="13.890942">
                <ele>0.137451</ele>
                <time>2006-08-27T08:54:19Z</time>
            </trkpt>
            <trkpt lon="100.811866" lat="13.890595">
                <ele>0.618042</ele>
                <time>2006-08-27T08:54:38Z</time>
            </trkpt>
            <trkpt lon="100.811914" lat="13.890582">
                <ele>0.618042</ele>
                <time>2006-08-27T08:54:39Z</time>
            </trkpt>
            <trkpt lon="100.812519" lat="13.890536">
                <ele>-1.304688</ele>
                <time>2006-08-27T08:54:52Z</time>
            </trkpt>
            <trkpt lon="100.812717" lat="13.890563">
                <ele>-1.304688</ele>
                <time>2006-08-27T08:54:56Z</time>
            </trkpt>
            <trkpt lon="100.813591" lat="13.890996">
                <ele>1.098633</ele>
                <time>2006-08-27T08:55:15Z</time>
            </trkpt>
            <trkpt lon="100.814360" lat="13.891758">
                <ele>1.579346</ele>
                <time>2006-08-27T08:55:34Z</time>
            </trkpt>
            <trkpt lon="100.815273" lat="13.892530">
                <ele>1.579346</ele>
                <time>2006-08-27T08:55:56Z</time>
            </trkpt>
            <trkpt lon="100.816091" lat="13.892962">
                <ele>3.501953</ele>
                <time>2006-08-27T08:56:15Z</time>
            </trkpt>
            <trkpt lon="100.816571" lat="13.893152">
                <ele>4.463257</ele>
                <time>2006-08-27T08:56:25Z</time>
            </trkpt>
            <trkpt lon="100.817631" lat="13.893417">
                <ele>5.424561</ele>
                <time>2006-08-27T08:56:44Z</time>
            </trkpt>
            <trkpt lon="100.818602" lat="13.893876">
                <ele>4.943848</ele>
                <time>2006-08-27T08:57:02Z</time>
            </trkpt>
            <trkpt lon="100.819836" lat="13.894244">
                <ele>4.463257</ele>
                <time>2006-08-27T08:57:24Z</time>
            </trkpt>
            <trkpt lon="100.821014" lat="13.894507">
                <ele>3.501953</ele>
                <time>2006-08-27T08:57:46Z</time>
            </trkpt>
            <trkpt lon="100.822239" lat="13.894884">
                <ele>4.463257</ele>
                <time>2006-08-27T08:58:09Z</time>
            </trkpt>
            <trkpt lon="100.823213" lat="13.895164">
                <ele>4.463257</ele>
                <time>2006-08-27T08:58:27Z</time>
            </trkpt>
            <trkpt lon="100.824078" lat="13.895381">
                <ele>3.982666</ele>
                <time>2006-08-27T08:58:43Z</time>
            </trkpt>
            <trkpt lon="100.824839" lat="13.895636">
                <ele>3.021240</ele>
                <time>2006-08-27T08:58:57Z</time>
            </trkpt>
            <trkpt lon="100.825820" lat="13.895588">
                <ele>3.021240</ele>
                <time>2006-08-27T08:59:14Z</time>
            </trkpt>
            <trkpt lon="100.827058" lat="13.895567">
                <ele>2.060059</ele>
                <time>2006-08-27T08:59:36Z</time>
            </trkpt>
            <trkpt lon="100.827790" lat="13.895425">
                <ele>2.060059</ele>
                <time>2006-08-27T08:59:49Z</time>
            </trkpt>
            <trkpt lon="100.828226" lat="13.895383">
                <ele>1.098633</ele>
                <time>2006-08-27T08:59:57Z</time>
            </trkpt>
            <trkpt lon="100.828384" lat="13.895353">
                <ele>1.098633</ele>
                <time>2006-08-27T09:00:03Z</time>
            </trkpt>
            <trkpt lon="100.828428" lat="13.895478">
                <ele>1.098633</ele>
                <time>2006-08-27T09:00:11Z</time>
            </trkpt>
            <trkpt lon="100.828377" lat="13.895885">
                <ele>2.540649</ele>
                <time>2006-08-27T09:00:26Z</time>
            </trkpt>
            <trkpt lon="100.828349" lat="13.896138">
                <ele>3.501953</ele>
                <time>2006-08-27T09:00:32Z</time>
            </trkpt>
            <trkpt lon="100.828328" lat="13.896638">
                <ele>4.943848</ele>
                <time>2006-08-27T09:00:46Z</time>
            </trkpt>
            <trkpt lon="100.828301" lat="13.897270">
                <ele>5.424561</ele>
                <time>2006-08-27T09:01:04Z</time>
            </trkpt>
            <trkpt lon="100.828730" lat="13.897347">
                <ele>3.982666</ele>
                <time>2006-08-27T09:01:14Z</time>
            </trkpt>
            <trkpt lon="100.829864" lat="13.897485">
                <ele>3.501953</ele>
                <time>2006-08-27T09:01:35Z</time>
            </trkpt>
            <trkpt lon="100.830823" lat="13.897627">
                <ele>3.501953</ele>
                <time>2006-08-27T09:01:52Z</time>
            </trkpt>
            <trkpt lon="100.831282" lat="13.898075">
                <ele>3.021240</ele>
                <time>2006-08-27T09:02:03Z</time>
            </trkpt>
            <trkpt lon="100.831566" lat="13.898377">
                <ele>3.021240</ele>
                <time>2006-08-27T09:02:10Z</time>
            </trkpt>
            <trkpt lon="100.832296" lat="13.899404">
                <ele>1.098633</ele>
                <time>2006-08-27T09:02:31Z</time>
            </trkpt>
            <trkpt lon="100.832954" lat="13.900471">
                <ele>1.098633</ele>
                <time>2006-08-27T09:02:52Z</time>
            </trkpt>
            <trkpt lon="100.833566" lat="13.901239">
                <ele>2.060059</ele>
                <time>2006-08-27T09:03:09Z</time>
            </trkpt>
            <trkpt lon="100.833780" lat="13.901510">
                <ele>2.540649</ele>
                <time>2006-08-27T09:03:15Z</time>
            </trkpt>
            <trkpt lon="100.834618" lat="13.902277">
                <ele>2.540649</ele>
                <time>2006-08-27T09:03:35Z</time>
            </trkpt>
            <trkpt lon="100.835032" lat="13.902548">
                <ele>2.540649</ele>
                <time>2006-08-27T09:03:44Z</time>
            </trkpt>
            <trkpt lon="100.835151" lat="13.902639">
                <ele>3.021240</ele>
                <time>2006-08-27T09:03:47Z</time>
            </trkpt>
            <trkpt lon="100.835397" lat="13.902877">
                <ele>3.501953</ele>
                <time>2006-08-27T09:03:54Z</time>
            </trkpt>
            <trkpt lon="100.835607" lat="13.903150">
                <ele>5.905273</ele>
                <time>2006-08-27T09:04:01Z</time>
            </trkpt>
            <trkpt lon="100.836162" lat="13.903767">
                <ele>3.982666</ele>
                <time>2006-08-27T09:04:16Z</time>
            </trkpt>
            <trkpt lon="100.836246" lat="13.904041">
                <ele>3.982666</ele>
                <time>2006-08-27T09:04:22Z</time>
            </trkpt>
            <trkpt lon="100.835853" lat="13.904489">
                <ele>4.943848</ele>
                <time>2006-08-27T09:04:33Z</time>
            </trkpt>
            <trkpt lon="100.835787" lat="13.904682">
                <ele>4.943848</ele>
                <time>2006-08-27T09:04:37Z</time>
            </trkpt>
            <trkpt lon="100.835773" lat="13.904786">
                <ele>4.943848</ele>
                <time>2006-08-27T09:04:39Z</time>
            </trkpt>
            <trkpt lon="100.835969" lat="13.905981">
                <ele>4.943848</ele>
                <time>2006-08-27T09:05:01Z</time>
            </trkpt>
            <trkpt lon="100.836070" lat="13.906786">
                <ele>4.463257</ele>
                <time>2006-08-27T09:05:16Z</time>
            </trkpt>
            <trkpt lon="100.836156" lat="13.906996">
                <ele>3.982666</ele>
                <time>2006-08-27T09:05:20Z</time>
            </trkpt>
            <trkpt lon="100.836351" lat="13.907197">
                <ele>3.021240</ele>
                <time>2006-08-27T09:05:25Z</time>
            </trkpt>
            <trkpt lon="100.836622" lat="13.907388">
                <ele>2.540649</ele>
                <time>2006-08-27T09:05:31Z</time>
            </trkpt>
            <trkpt lon="100.836703" lat="13.907589">
                <ele>3.021240</ele>
                <time>2006-08-27T09:05:35Z</time>
            </trkpt>
            <trkpt lon="100.836656" lat="13.908666">
                <ele>3.501953</ele>
                <time>2006-08-27T09:05:55Z</time>
            </trkpt>
            <trkpt lon="100.836655" lat="13.909889">
                <ele>4.463257</ele>
                <time>2006-08-27T09:06:17Z</time>
            </trkpt>
            <trkpt lon="100.836686" lat="13.910955">
                <ele>4.463257</ele>
                <time>2006-08-27T09:06:36Z</time>
            </trkpt>
            <trkpt lon="100.836833" lat="13.911228">
                <ele>3.982666</ele>
                <time>2006-08-27T09:06:46Z</time>
            </trkpt>
            <trkpt lon="100.837297" lat="13.911244">
                <ele>3.501953</ele>
                <time>2006-08-27T09:06:59Z</time>
            </trkpt>
            <trkpt lon="100.838093" lat="13.911304">
                <ele>4.463257</ele>
                <time>2006-08-27T09:07:19Z</time>
            </trkpt>
            <trkpt lon="100.838342" lat="13.911303">
                <ele>3.021240</ele>
                <time>2006-08-27T09:07:26Z</time>
            </trkpt>
            <trkpt lon="100.839408" lat="13.911434">
                <ele>1.579346</ele>
                <time>2006-08-27T09:07:46Z</time>
            </trkpt>
            <trkpt lon="100.840465" lat="13.911531">
                <ele>2.060059</ele>
                <time>2006-08-27T09:08:08Z</time>
            </trkpt>
            <trkpt lon="100.840544" lat="13.911497">
                <ele>2.060059</ele>
                <time>2006-08-27T09:08:11Z</time>
            </trkpt>
            <trkpt lon="100.840613" lat="13.911040">
                <ele>3.021240</ele>
                <time>2006-08-27T09:08:24Z</time>
            </trkpt>
            <trkpt lon="100.840701" lat="13.910223">
                <ele>2.540649</ele>
                <time>2006-08-27T09:08:42Z</time>
            </trkpt>
            <trkpt lon="100.840811" lat="13.909143">
                <ele>2.060059</ele>
                <time>2006-08-27T09:09:04Z</time>
            </trkpt>
            <trkpt lon="100.840941" lat="13.908032">
                <ele>1.098633</ele>
                <time>2006-08-27T09:09:25Z</time>
            </trkpt>
            <trkpt lon="100.841016" lat="13.907041">
                <ele>1.579346</ele>
                <time>2006-08-27T09:09:45Z</time>
            </trkpt>
            <trkpt lon="100.841027" lat="13.906265">
                <ele>0.137451</ele>
                <time>2006-08-27T09:10:00Z</time>
            </trkpt>
            <trkpt lon="100.841115" lat="13.905377">
                <ele>0.618042</ele>
                <time>2006-08-27T09:10:18Z</time>
            </trkpt>
            <trkpt lon="100.841213" lat="13.905112">
                <ele>1.098633</ele>
                <time>2006-08-27T09:10:23Z</time>
            </trkpt>
            <trkpt lon="100.841481" lat="13.904977">
                <ele>1.098633</ele>
                <time>2006-08-27T09:10:29Z</time>
            </trkpt>
            <trkpt lon="100.843096" lat="13.905163">
                <ele>1.579346</ele>
                <time>2006-08-27T09:10:57Z</time>
            </trkpt>
            <trkpt lon="100.844549" lat="13.905325">
                <ele>2.540649</ele>
                <time>2006-08-27T09:11:21Z</time>
            </trkpt>
            <trkpt lon="100.846030" lat="13.905486">
                <ele>2.060059</ele>
                <time>2006-08-27T09:11:46Z</time>
            </trkpt>
            <trkpt lon="100.846371" lat="13.905520">
                <ele>2.540649</ele>
                <time>2006-08-27T09:11:52Z</time>
            </trkpt>
            <trkpt lon="100.846528" lat="13.905304">
                <ele>2.540649</ele>
                <time>2006-08-27T09:11:58Z</time>
            </trkpt>
            <trkpt lon="100.846353" lat="13.904098">
                <ele>1.098633</ele>
                <time>2006-08-27T09:12:22Z</time>
            </trkpt>
            <trkpt lon="100.846225" lat="13.903222">
                <ele>0.137451</ele>
                <time>2006-08-27T09:12:39Z</time>
            </trkpt>
            <trkpt lon="100.846063" lat="13.902109">
                <ele>-0.343384</ele>
                <time>2006-08-27T09:13:00Z</time>
            </trkpt>
            <trkpt lon="100.845877" lat="13.900846">
                <ele>-0.824097</ele>
                <time>2006-08-27T09:13:24Z</time>
            </trkpt>
            <trkpt lon="100.845683" lat="13.899561">
                <ele>0.618042</ele>
                <time>2006-08-27T09:13:49Z</time>
            </trkpt>
            <trkpt lon="100.845509" lat="13.898461">
                <ele>0.137451</ele>
                <time>2006-08-27T09:14:10Z</time>
            </trkpt>
            <trkpt lon="100.845692" lat="13.898249">
                <ele>0.618042</ele>
                <time>2006-08-27T09:14:16Z</time>
            </trkpt>
            <trkpt lon="100.846132" lat="13.898165">
                <ele>1.098633</ele>
                <time>2006-08-27T09:14:24Z</time>
            </trkpt>
            <trkpt lon="100.846311" lat="13.897960">
                <ele>1.579346</ele>
                <time>2006-08-27T09:14:29Z</time>
            </trkpt>
            <trkpt lon="100.846462" lat="13.897689">
                <ele>2.540649</ele>
                <time>2006-08-27T09:14:35Z</time>
            </trkpt>
            <trkpt lon="100.846628" lat="13.897636">
                <ele>2.540649</ele>
                <time>2006-08-27T09:14:39Z</time>
            </trkpt>
            <trkpt lon="100.847846" lat="13.897625">
                <ele>2.540649</ele>
                <time>2006-08-27T09:15:01Z</time>
            </trkpt>
            <trkpt lon="100.849057" lat="13.897619">
                <ele>1.579346</ele>
                <time>2006-08-27T09:15:22Z</time>
            </trkpt>
            <trkpt lon="100.849555" lat="13.897615">
                <ele>1.098633</ele>
                <time>2006-08-27T09:15:31Z</time>
            </trkpt>
            <trkpt lon="100.849695" lat="13.897385">
                <ele>2.060059</ele>
                <time>2006-08-27T09:15:37Z</time>
            </trkpt>
            <trkpt lon="100.849663" lat="13.897091">
                <ele>2.060059</ele>
                <time>2006-08-27T09:15:42Z</time>
            </trkpt>
            <trkpt lon="100.849718" lat="13.895805">
                <ele>-1.304688</ele>
                <time>2006-08-27T09:16:04Z</time>
            </trkpt>
            <trkpt lon="100.849779" lat="13.894941">
                <ele>-2.746704</ele>
                <time>2006-08-27T09:16:19Z</time>
            </trkpt>
            <trkpt lon="100.849951" lat="13.893662">
                <ele>-2.265991</ele>
                <time>2006-08-27T09:16:42Z</time>
            </trkpt>
            <trkpt lon="100.850177" lat="13.892113">
                <ele>-0.343384</ele>
                <time>2006-08-27T09:17:09Z</time>
            </trkpt>
            <trkpt lon="100.850227" lat="13.891564">
                <ele>1.098633</ele>
                <time>2006-08-27T09:17:21Z</time>
            </trkpt>
            <trkpt lon="100.850204" lat="13.891561">
                <ele>2.060059</ele>
                <time>2006-08-27T09:17:36Z</time>
            </trkpt>
            <trkpt lon="100.850258" lat="13.891696">
                <ele>2.060059</ele>
                <time>2006-08-27T09:17:42Z</time>
            </trkpt>
            <trkpt lon="100.850514" lat="13.891732">
                <ele>2.540649</ele>
                <time>2006-08-27T09:17:52Z</time>
            </trkpt>
            <trkpt lon="100.850810" lat="13.891770">
                <ele>7.347168</ele>
                <time>2006-08-27T09:21:31Z</time>
            </trkpt>
            <trkpt lon="100.850461" lat="13.891717">
                <ele>4.943848</ele>
                <time>2006-08-27T09:21:42Z</time>
            </trkpt>
            <trkpt lon="100.850264" lat="13.891679">
                <ele>3.982666</ele>
                <time>2006-08-27T09:21:47Z</time>
            </trkpt>
            <trkpt lon="100.850193" lat="13.891555">
                <ele>3.501953</ele>
                <time>2006-08-27T09:21:56Z</time>
            </trkpt>
            <trkpt lon="100.850070" lat="13.891473">
                <ele>3.982666</ele>
                <time>2006-08-27T09:22:07Z</time>
            </trkpt>
            <trkpt lon="100.849968" lat="13.891416">
                <ele>3.021240</ele>
                <time>2006-08-27T09:22:12Z</time>
            </trkpt>
            <trkpt lon="100.849478" lat="13.891141">
                <ele>2.060059</ele>
                <time>2006-08-27T09:22:26Z</time>
            </trkpt>
            <trkpt lon="100.849406" lat="13.890748">
                <ele>2.060059</ele>
                <time>2006-08-27T09:22:36Z</time>
            </trkpt>
            <trkpt lon="100.849273" lat="13.889888">
                <ele>0.137451</ele>
                <time>2006-08-27T09:22:55Z</time>
            </trkpt>
            <trkpt lon="100.849081" lat="13.888779">
                <ele>0.137451</ele>
                <time>2006-08-27T09:23:18Z</time>
            </trkpt>
            <trkpt lon="100.848723" lat="13.887737">
                <ele>-0.343384</ele>
                <time>2006-08-27T09:23:40Z</time>
            </trkpt>
            <trkpt lon="100.848455" lat="13.886513">
                <ele>-1.304688</ele>
                <time>2006-08-27T09:24:04Z</time>
            </trkpt>
            <trkpt lon="100.848419" lat="13.886317">
                <ele>-1.304688</ele>
                <time>2006-08-27T09:24:08Z</time>
            </trkpt>
            <trkpt lon="100.848555" lat="13.886149">
                <ele>-0.824097</ele>
                <time>2006-08-27T09:24:13Z</time>
            </trkpt>
            <trkpt lon="100.848645" lat="13.886126">
                <ele>-0.824097</ele>
                <time>2006-08-27T09:24:15Z</time>
            </trkpt>
            <trkpt lon="100.848748" lat="13.885999">
                <ele>-0.824097</ele>
                <time>2006-08-27T09:24:19Z</time>
            </trkpt>
            <trkpt lon="100.848721" lat="13.885776">
                <ele>-1.785278</ele>
                <time>2006-08-27T09:24:24Z</time>
            </trkpt>
            <trkpt lon="100.848741" lat="13.884884">
                <ele>-1.785278</ele>
                <time>2006-08-27T09:24:43Z</time>
            </trkpt>
            <trkpt lon="100.848749" lat="13.883803">
                <ele>-3.707886</ele>
                <time>2006-08-27T09:25:04Z</time>
            </trkpt>
            <trkpt lon="100.848761" lat="13.882693">
                <ele>-6.591919</ele>
                <time>2006-08-27T09:25:26Z</time>
            </trkpt>
            <trkpt lon="100.848748" lat="13.881521">
                <ele>-4.669312</ele>
                <time>2006-08-27T09:25:51Z</time>
            </trkpt>
            <trkpt lon="100.848748" lat="13.880636">
                <ele>-4.669312</ele>
                <time>2006-08-27T09:26:08Z</time>
            </trkpt>
            <trkpt lon="100.848751" lat="13.880146">
                <ele>-5.149902</ele>
                <time>2006-08-27T09:26:18Z</time>
            </trkpt>
            <trkpt lon="100.848853" lat="13.880023">
                <ele>-4.188599</ele>
                <time>2006-08-27T09:26:22Z</time>
            </trkpt>
            <trkpt lon="100.849582" lat="13.879704">
                <ele>-1.785278</ele>
                <time>2006-08-27T09:26:38Z</time>
            </trkpt>
            <trkpt lon="100.849807" lat="13.879604">
                <ele>-0.824097</ele>
                <time>2006-08-27T09:26:43Z</time>
            </trkpt>
            <trkpt lon="100.849908" lat="13.879417">
                <ele>-0.824097</ele>
                <time>2006-08-27T09:26:49Z</time>
            </trkpt>
            <trkpt lon="100.849909" lat="13.879250">
                <ele>-1.785278</ele>
                <time>2006-08-27T09:26:55Z</time>
            </trkpt>
            <trkpt lon="100.849885" lat="13.879250">
                <ele>-1.785278</ele>
                <time>2006-08-27T09:27:01Z</time>
            </trkpt>
            <trkpt lon="100.849923" lat="13.879539">
                <ele>-2.265991</ele>
                <time>2006-08-27T09:27:13Z</time>
            </trkpt>
            <trkpt lon="100.850317" lat="13.879392">
                <ele>-2.265991</ele>
                <time>2006-08-27T09:27:24Z</time>
            </trkpt>
            <trkpt lon="100.850783" lat="13.879189">
                <ele>-2.265991</ele>
                <time>2006-08-27T09:27:34Z</time>
            </trkpt>
            <trkpt lon="100.851954" lat="13.878970">
                <ele>-0.343384</ele>
                <time>2006-08-27T09:27:56Z</time>
            </trkpt>
            <trkpt lon="100.852548" lat="13.878869">
                <ele>0.618042</ele>
                <time>2006-08-27T09:28:07Z</time>
            </trkpt>
            <trkpt lon="100.852712" lat="13.878631">
                <ele>0.618042</ele>
                <time>2006-08-27T09:28:13Z</time>
            </trkpt>
            <trkpt lon="100.852883" lat="13.877604">
                <ele>-1.304688</ele>
                <time>2006-08-27T09:28:34Z</time>
            </trkpt>
            <trkpt lon="100.852956" lat="13.876474">
                <ele>-2.265991</ele>
                <time>2006-08-27T09:28:57Z</time>
            </trkpt>
            <trkpt lon="100.852890" lat="13.875392">
                <ele>-2.265991</ele>
                <time>2006-08-27T09:29:18Z</time>
            </trkpt>
            <trkpt lon="100.852868" lat="13.874243">
                <ele>-2.265991</ele>
                <time>2006-08-27T09:29:40Z</time>
            </trkpt>
            <trkpt lon="100.852848" lat="13.873109">
                <ele>-1.304688</ele>
                <time>2006-08-27T09:30:02Z</time>
            </trkpt>
            <trkpt lon="100.852901" lat="13.872071">
                <ele>-1.785278</ele>
                <time>2006-08-27T09:30:22Z</time>
            </trkpt>
            <trkpt lon="100.852936" lat="13.871650">
                <ele>-2.746704</ele>
                <time>2006-08-27T09:30:30Z</time>
            </trkpt>
            <trkpt lon="100.852970" lat="13.871495">
                <ele>-2.746704</ele>
                <time>2006-08-27T09:30:33Z</time>
            </trkpt>
            <trkpt lon="100.853001" lat="13.871003">
                <ele>-5.149902</ele>
                <time>2006-08-27T09:30:43Z</time>
            </trkpt>
            <trkpt lon="100.853145" lat="13.870204">
                <ele>-4.669312</ele>
                <time>2006-08-27T09:31:02Z</time>
            </trkpt>
            <trkpt lon="100.853143" lat="13.870024">
                <ele>-3.707886</ele>
                <time>2006-08-27T09:31:09Z</time>
            </trkpt>
            <trkpt lon="100.852998" lat="13.869920">
                <ele>-3.707886</ele>
                <time>2006-08-27T09:31:13Z</time>
            </trkpt>
            <trkpt lon="100.851990" lat="13.869382">
                <ele>-0.824097</ele>
                <time>2006-08-27T09:31:34Z</time>
            </trkpt>
            <trkpt lon="100.851007" lat="13.868923">
                <ele>3.501953</ele>
                <time>2006-08-27T09:31:55Z</time>
            </trkpt>
            <trkpt lon="100.850044" lat="13.868460">
                <ele>4.943848</ele>
                <time>2006-08-27T09:32:16Z</time>
            </trkpt>
            <trkpt lon="100.849066" lat="13.867918">
                <ele>5.424561</ele>
                <time>2006-08-27T09:32:38Z</time>
            </trkpt>
            <trkpt lon="100.848155" lat="13.867518">
                <ele>5.424561</ele>
                <time>2006-08-27T09:32:58Z</time>
            </trkpt>
            <trkpt lon="100.847992" lat="13.867661">
                <ele>4.463257</ele>
                <time>2006-08-27T09:33:03Z</time>
            </trkpt>
            <trkpt lon="100.847943" lat="13.868707">
                <ele>3.501953</ele>
                <time>2006-08-27T09:33:23Z</time>
            </trkpt>
            <trkpt lon="100.847877" lat="13.869972">
                <ele>3.982666</ele>
                <time>2006-08-27T09:33:48Z</time>
            </trkpt>
            <trkpt lon="100.847843" lat="13.870778">
                <ele>3.982666</ele>
                <time>2006-08-27T09:34:05Z</time>
            </trkpt>
            <trkpt lon="100.847763" lat="13.871256">
                <ele>2.060059</ele>
                <time>2006-08-27T09:34:20Z</time>
            </trkpt>
            <trkpt lon="100.847594" lat="13.871351">
                <ele>1.098633</ele>
                <time>2006-08-27T09:34:34Z</time>
            </trkpt>
            <trkpt lon="100.847580" lat="13.871343">
                <ele>3.982666</ele>
                <time>2006-08-27T09:35:01Z</time>
            </trkpt>
            <trkpt lon="100.847626" lat="13.871289">
                <ele>3.501953</ele>
                <time>2006-08-27T09:35:07Z</time>
            </trkpt>
            <trkpt lon="100.847823" lat="13.871059">
                <ele>2.540649</ele>
                <time>2006-08-27T09:35:22Z</time>
            </trkpt>
            <trkpt lon="100.847841" lat="13.870788">
                <ele>1.579346</ele>
                <time>2006-08-27T09:35:32Z</time>
            </trkpt>
            <trkpt lon="100.847875" lat="13.870785">
                <ele>1.579346</ele>
                <time>2006-08-27T09:35:42Z</time>
            </trkpt>
            <trkpt lon="100.847880" lat="13.870776">
                <ele>0.618042</ele>
                <time>2006-08-27T09:36:06Z</time>
            </trkpt>
        </trkseg>
    </trk>
</gpx>